createdAt,value
2018-07-31T00:01:38.593Z,10.33
2018-07-31T00:04:06.779Z,9.90
2018-07-31T00:06:34.988Z,10.40
2018-07-31T00:09:03.290Z,11.37
2018-07-31T00:11:31.493Z,10.07
2018-07-31T00:13:59.709Z,10.40
2018-07-31T00:16:27.954Z,9.90
2018-07-31T00:18:56.192Z,11.20
2018-07-31T00:21:24.470Z,9.90
2018-07-31T00:23:52.707Z,9.90
2018-07-31T00:26:20.913Z,9.97
2018-07-31T00:28:49.131Z,10.00
2018-07-31T00:31:17.378Z,10.60
2018-07-31T00:33:45.718Z,11.27
2018-07-31T00:36:13.874Z,9.40
2018-07-31T00:38:42.102Z,10.30
2018-07-31T00:41:10.315Z,12.93
2018-07-31T00:43:38.486Z,12.63
2018-07-31T00:46:06.806Z,13.27
2018-07-31T00:48:35.012Z,12.53
2018-07-31T00:51:03.231Z,12.27
2018-07-31T00:53:31.391Z,13.57
2018-07-31T00:55:59.602Z,14.17
2018-07-31T00:58:27.794Z,14.97
2018-07-31T01:00:55.989Z,14.00
2018-07-31T01:03:24.182Z,12.13
2018-07-31T01:05:52.353Z,9.87
2018-07-31T01:08:20.635Z,11.13
2018-07-31T01:10:48.857Z,9.97
2018-07-31T01:13:17.126Z,11.20
2018-07-31T01:15:45.339Z,12.17
2018-07-31T01:18:13.527Z,10.67
2018-07-31T01:20:41.748Z,11.17
2018-07-31T01:23:09.960Z,11.00
2018-07-31T01:25:38.364Z,11.40
2018-07-31T01:28:06.555Z,12.67
2018-07-31T01:30:34.764Z,10.60
2018-07-31T01:33:03.061Z,11.73
2018-07-31T01:35:31.262Z,10.30
2018-07-31T01:37:59.449Z,10.93
2018-07-31T01:40:27.726Z,12.77
2018-07-31T01:42:55.963Z,11.80
2018-07-31T01:45:24.159Z,12.70
2018-07-31T01:47:52.405Z,13.20
2018-07-31T01:50:20.604Z,12.97
2018-07-31T01:52:48.806Z,11.53
2018-07-31T01:55:17.058Z,11.23
2018-07-31T01:57:45.279Z,11.23
2018-07-31T02:00:13.502Z,10.73
2018-07-31T02:02:41.743Z,11.87
2018-07-31T02:05:09.926Z,11.20
2018-07-31T02:07:38.133Z,11.60
2018-07-31T02:10:06.321Z,11.00
2018-07-31T02:12:34.524Z,10.93
2018-07-31T02:15:02.724Z,11.50
2018-07-31T02:17:30.918Z,10.40
2018-07-31T02:19:59.100Z,10.90
2018-07-31T02:22:27.323Z,10.23
2018-07-31T02:24:55.557Z,10.80
2018-07-31T02:27:23.745Z,10.77
2018-07-31T02:29:57.308Z,10.07
2018-07-31T02:32:25.490Z,11.80
2018-07-31T02:34:53.696Z,10.87
2018-07-31T02:37:21.889Z,11.33
2018-07-31T02:39:50.483Z,11.10
2018-07-31T02:42:18.689Z,12.10
2018-07-31T02:44:46.907Z,12.13
2018-07-31T02:47:15.066Z,12.33
2018-07-31T02:49:43.309Z,11.60
2018-07-31T02:52:11.501Z,11.13
2018-07-31T02:54:39.689Z,10.90
2018-07-31T02:57:07.643Z,12.07
2018-07-31T02:59:35.816Z,10.87
2018-07-31T03:02:04.023Z,10.73
2018-07-31T03:04:32.314Z,11.20
2018-07-31T03:07:01.005Z,12.43
2018-07-31T03:09:29.224Z,12.23
2018-07-31T03:11:57.403Z,11.00
2018-07-31T03:14:25.650Z,11.60
2018-07-31T03:16:53.846Z,11.93
2018-07-31T03:19:22.043Z,12.67
2018-07-31T03:21:50.222Z,11.73
2018-07-31T03:24:18.455Z,11.60
2018-07-31T03:26:46.655Z,11.33
2018-07-31T03:29:14.834Z,11.57
2018-07-31T03:31:42.804Z,11.30
2018-07-31T03:34:11.066Z,10.50
2018-07-31T03:36:39.240Z,11.90
2018-07-31T03:39:08.218Z,10.93
2018-07-31T03:41:36.494Z,12.07
2018-07-31T03:44:04.835Z,12.10
2018-07-31T03:46:33.133Z,12.33
2018-07-31T03:49:01.321Z,11.27
2018-07-31T03:51:29.560Z,11.20
2018-07-31T03:53:57.798Z,12.27
2018-07-31T03:56:26.083Z,11.37
2018-07-31T03:58:54.286Z,11.37
2018-07-31T04:01:22.482Z,11.50
2018-07-31T04:03:50.693Z,11.83
2018-07-31T04:06:18.931Z,12.87
2018-07-31T04:08:47.119Z,12.10
2018-07-31T04:11:15.646Z,12.27
2018-07-31T04:13:43.863Z,12.83
2018-07-31T04:16:12.077Z,11.47
2018-07-31T04:18:40.261Z,12.60
2018-07-31T04:21:08.487Z,11.63
2018-07-31T04:23:36.712Z,12.40
2018-07-31T04:26:04.657Z,12.27
2018-07-31T04:28:32.954Z,12.67
2018-07-31T04:31:01.187Z,12.30
2018-07-31T04:33:29.434Z,11.50
2018-07-31T04:35:57.724Z,11.77
2018-07-31T04:38:26.013Z,11.10
2018-07-31T04:40:54.237Z,11.90
2018-07-31T04:43:22.534Z,12.30
2018-07-31T04:45:50.746Z,13.47
2018-07-31T04:48:18.961Z,13.30
2018-07-31T04:50:47.158Z,14.17
2018-07-31T04:53:15.410Z,11.70
2018-07-31T04:55:43.735Z,11.90
2018-07-31T04:58:11.957Z,12.60
2018-07-31T05:00:40.285Z,12.37
2018-07-31T05:03:08.485Z,12.73
2018-07-31T05:05:36.731Z,13.10
2018-07-31T05:08:05.241Z,12.70
2018-07-31T05:10:33.492Z,12.40
2018-07-31T05:13:01.669Z,13.40
2018-07-31T05:15:29.942Z,13.30
2018-07-31T05:17:58.246Z,12.03
2018-07-31T05:20:26.867Z,12.90
2018-07-31T05:22:55.103Z,13.30
2018-07-31T05:25:23.450Z,13.77
2018-07-31T05:27:51.648Z,14.30
2018-07-31T05:30:19.921Z,14.10
2018-07-31T05:32:48.152Z,12.40
2018-07-31T05:35:17.187Z,14.17
2018-07-31T05:37:45.398Z,12.63
2018-07-31T05:40:13.663Z,12.13
2018-07-31T05:42:41.845Z,12.73
2018-07-31T05:45:10.130Z,13.33
2018-07-31T05:47:38.775Z,13.43
2018-07-31T05:50:07.769Z,14.00
2018-07-31T05:52:36.080Z,12.30
2018-07-31T05:55:11.005Z,11.87
2018-07-31T05:57:39.357Z,11.80
2018-07-31T06:00:08.166Z,11.57
2018-07-31T06:02:36.427Z,12.33
2018-07-31T06:05:04.654Z,14.97
2018-07-31T06:07:32.914Z,11.20
2018-07-31T06:10:01.085Z,11.93
2018-07-31T06:12:29.335Z,11.00
2018-07-31T06:14:57.521Z,12.23
2018-07-31T06:17:25.814Z,11.47
2018-07-31T06:19:54.150Z,11.77
2018-07-31T06:22:22.402Z,12.60
2018-07-31T06:24:50.605Z,11.80
2018-07-31T06:27:18.862Z,12.50
2018-07-31T06:29:47.047Z,12.20
2018-07-31T06:32:15.242Z,11.60
2018-07-31T06:34:43.434Z,11.50
2018-07-31T06:37:11.387Z,11.30
2018-07-31T06:39:39.685Z,11.47
2018-07-31T06:42:08.330Z,10.43
2018-07-31T06:44:37.298Z,10.97
2018-07-31T06:47:05.557Z,10.07
2018-07-31T06:49:33.796Z,10.03
2018-07-31T06:52:02.089Z,11.93
2018-07-31T06:54:30.410Z,11.07
2018-07-31T06:56:58.675Z,11.80
2018-07-31T06:59:26.882Z,11.00
2018-07-31T07:01:55.187Z,9.60
2018-07-31T07:04:23.347Z,9.83
2018-07-31T07:06:51.525Z,10.50
2018-07-31T07:09:20.017Z,10.27
2018-07-31T07:11:48.458Z,11.07
2018-07-31T07:14:16.670Z,10.17
2018-07-31T07:16:45.622Z,10.33
2018-07-31T07:19:13.782Z,10.20
2018-07-31T07:21:42.310Z,10.60
2018-07-31T07:24:10.554Z,10.20
2018-07-31T07:26:38.803Z,8.97
2018-07-31T07:29:06.977Z,15.37
2018-07-31T07:31:35.196Z,13.23
2018-07-31T07:34:03.434Z,9.33
2018-07-31T07:36:31.584Z,10.17
2018-07-31T07:38:59.781Z,11.10
2018-07-31T07:41:28.006Z,10.07
2018-07-31T07:43:56.265Z,9.53
2018-07-31T07:46:24.576Z,9.70
2018-07-31T07:48:52.813Z,10.37
2018-07-31T07:51:21.126Z,10.10
2018-07-31T07:53:49.385Z,9.50
2018-07-31T07:56:17.510Z,8.97
2018-07-31T07:58:45.776Z,9.20
2018-07-31T08:01:13.988Z,9.17
2018-07-31T08:03:42.252Z,9.70
2018-07-31T08:06:10.466Z,9.50
2018-07-31T08:08:38.685Z,9.40
2018-07-31T08:11:07.112Z,9.93
2018-07-31T08:13:35.302Z,8.60
2018-07-31T08:16:03.541Z,9.00
2018-07-31T08:18:31.749Z,9.67
2018-07-31T08:20:59.961Z,9.00
2018-07-31T08:23:28.150Z,8.80
2018-07-31T08:25:56.360Z,8.50
2018-07-31T08:28:24.895Z,9.30
2018-07-31T08:30:52.937Z,8.80
2018-07-31T08:33:21.103Z,8.00
2018-07-31T08:35:49.330Z,8.90
2018-07-31T08:38:17.558Z,8.47
2018-07-31T08:40:45.748Z,11.17
2018-07-31T08:43:14.238Z,9.00
2018-07-31T08:45:42.410Z,7.83
2018-07-31T08:48:10.626Z,9.00
2018-07-31T08:50:38.861Z,8.03
2018-07-31T08:53:07.150Z,9.00
2018-07-31T08:55:35.367Z,8.60
2018-07-31T08:58:03.535Z,8.90
2018-07-31T09:00:31.682Z,8.33
2018-07-31T09:02:59.982Z,9.23
2018-07-31T09:05:28.164Z,8.20
2018-07-31T09:07:56.395Z,8.80
2018-07-31T09:10:24.611Z,8.80
2018-07-31T09:12:52.905Z,9.13
2018-07-31T09:15:21.646Z,8.83
2018-07-31T09:17:49.976Z,8.93
2018-07-31T09:20:18.246Z,8.60
2018-07-31T09:22:46.469Z,9.50
2018-07-31T09:25:14.660Z,8.97
2018-07-31T09:27:42.842Z,9.37
2018-07-31T09:30:11.119Z,9.07
2018-07-31T09:32:44.505Z,8.60
2018-07-31T09:35:12.664Z,9.47
2018-07-31T09:37:40.840Z,8.80
2018-07-31T09:40:09.079Z,9.20
2018-07-31T09:42:37.305Z,9.40
2018-07-31T09:45:05.474Z,8.43
2018-07-31T09:47:33.724Z,9.93
2018-07-31T09:50:01.898Z,8.90
2018-07-31T09:52:30.048Z,9.40
2018-07-31T09:54:58.230Z,10.70
2018-07-31T09:57:26.398Z,9.80
2018-07-31T09:59:54.609Z,9.20
2018-07-31T10:02:22.765Z,8.90
2018-07-31T10:04:50.982Z,9.80
2018-07-31T10:07:19.141Z,8.80
2018-07-31T10:09:47.293Z,9.40
2018-07-31T10:12:15.584Z,8.73
2018-07-31T10:14:43.650Z,9.07
2018-07-31T10:17:11.869Z,8.63
2018-07-31T10:19:40.018Z,8.30
2018-07-31T10:22:08.192Z,8.90
2018-07-31T10:24:36.754Z,9.27
2018-07-31T10:27:04.959Z,8.53
2018-07-31T10:29:33.233Z,9.10
2018-07-31T10:32:01.578Z,8.10
2018-07-31T10:34:29.775Z,8.27
2018-07-31T10:36:57.959Z,8.50
2018-07-31T10:39:25.957Z,10.67
2018-07-31T10:41:54.170Z,9.47
2018-07-31T10:44:22.324Z,8.27
2018-07-31T10:46:50.335Z,8.33
2018-07-31T10:49:18.630Z,8.33
2018-07-31T10:51:46.798Z,8.40
2018-07-31T10:54:14.984Z,8.80
2018-07-31T10:56:43.594Z,10.40
2018-07-31T10:59:11.794Z,9.40
2018-07-31T11:01:40.062Z,9.70
2018-07-31T11:04:08.257Z,9.53
2018-07-31T11:06:36.500Z,9.30
2018-07-31T11:09:07.754Z,9.43
2018-07-31T11:11:35.985Z,10.03
2018-07-31T11:14:04.850Z,9.67
2018-07-31T11:16:33.025Z,9.53
2018-07-31T11:19:01.263Z,9.50
2018-07-31T11:21:29.834Z,10.40
2018-07-31T11:23:58.146Z,9.77
2018-07-31T11:26:26.332Z,8.33
2018-07-31T11:28:54.575Z,8.63
2018-07-31T11:31:22.966Z,9.10
2018-07-31T11:33:51.545Z,8.17
2018-07-31T11:36:19.801Z,8.73
2018-07-31T11:38:48.025Z,8.97
2018-07-31T11:41:17.041Z,9.90
2018-07-31T11:43:45.322Z,9.40
2018-07-31T11:46:13.583Z,9.27
2018-07-31T11:48:41.830Z,9.20
2018-07-31T11:51:10.042Z,9.07
2018-07-31T11:53:38.370Z,9.37
2018-07-31T11:56:06.571Z,9.97
2018-07-31T11:58:34.853Z,8.30
2018-07-31T12:01:03.131Z,8.83
2018-07-31T12:03:31.382Z,8.50
2018-07-31T12:05:59.648Z,8.57
2018-07-31T12:08:27.905Z,8.20
2018-07-31T12:10:56.123Z,8.47
2018-07-31T12:13:24.349Z,8.33
2018-07-31T12:15:52.554Z,8.57
2018-07-31T12:18:20.865Z,8.50
2018-07-31T12:20:49.051Z,8.47
2018-07-31T12:23:17.278Z,8.93
2018-07-31T12:25:45.744Z,8.77
2018-07-31T12:28:14.406Z,8.30
2018-07-31T12:30:42.686Z,8.63
2018-07-31T12:33:10.933Z,9.03
2018-07-31T12:35:39.182Z,7.97
2018-07-31T12:38:07.557Z,8.23
2018-07-31T12:40:35.775Z,8.13
2018-07-31T12:43:04.067Z,8.10
2018-07-31T12:45:32.324Z,8.63
2018-07-31T12:48:00.528Z,8.43
2018-07-31T12:50:29.076Z,8.47
2018-07-31T12:52:57.282Z,8.40
2018-07-31T12:55:25.591Z,8.30
2018-07-31T12:57:53.768Z,8.70
2018-07-31T13:00:22.080Z,8.93
2018-07-31T13:02:50.334Z,8.17
2018-07-31T13:05:18.610Z,7.70
2018-07-31T13:07:46.790Z,8.13
2018-07-31T13:10:14.996Z,8.10
2018-07-31T13:12:43.227Z,8.00
2018-07-31T13:15:11.483Z,8.20
2018-07-31T13:17:39.714Z,7.50
2018-07-31T13:20:07.941Z,8.00
2018-07-31T13:22:36.233Z,7.73
2018-07-31T13:25:04.556Z,9.30
2018-07-31T13:27:32.784Z,7.40
2018-07-31T13:30:01.014Z,8.03
2018-07-31T13:32:29.218Z,7.73
2018-07-31T13:34:57.486Z,9.03
2018-07-31T13:37:25.670Z,7.40
2018-07-31T13:39:54.220Z,6.90
2018-07-31T13:42:22.476Z,7.33
2018-07-31T13:44:50.673Z,6.57
2018-07-31T13:47:19.057Z,7.37
2018-07-31T13:49:47.319Z,7.57
2018-07-31T13:52:15.531Z,6.97
2018-07-31T13:54:43.724Z,7.60
2018-07-31T13:57:11.966Z,7.07
2018-07-31T13:59:40.313Z,7.33
2018-07-31T14:02:08.534Z,7.23
2018-07-31T14:04:36.782Z,7.80
2018-07-31T14:07:04.977Z,7.50
2018-07-31T14:09:33.222Z,7.63
2018-07-31T14:12:01.410Z,7.80
2018-07-31T14:14:29.627Z,7.00
2018-07-31T14:16:57.977Z,7.50
2018-07-31T14:19:26.482Z,8.00
2018-07-31T14:21:54.703Z,7.87
2018-07-31T14:24:22.953Z,8.60
2018-07-31T14:26:51.181Z,7.47
2018-07-31T14:29:19.649Z,8.03
2018-07-31T14:31:47.878Z,8.33
2018-07-31T14:34:16.108Z,8.70
2018-07-31T14:36:44.405Z,8.80
2018-07-31T14:39:12.545Z,8.13
2018-07-31T14:41:40.729Z,7.93
2018-07-31T14:44:08.983Z,7.43
2018-07-31T14:46:37.739Z,7.80
2018-07-31T14:49:05.983Z,7.03
2018-07-31T14:51:34.241Z,7.87
2018-07-31T14:54:02.695Z,7.23
2018-07-31T14:56:30.914Z,7.03
2018-07-31T14:58:59.493Z,6.90
2018-07-31T15:01:27.816Z,8.10
2018-07-31T15:03:56.017Z,7.60
2018-07-31T15:06:24.236Z,9.80
2018-07-31T15:08:52.601Z,9.07
2018-07-31T15:11:25.637Z,8.60
2018-07-31T15:13:53.849Z,9.60
2018-07-31T15:16:22.332Z,8.93
2018-07-31T15:18:53.088Z,9.07
2018-07-31T15:21:21.492Z,9.40
2018-07-31T15:23:49.696Z,8.30
2018-07-31T15:26:18.007Z,8.43
2018-07-31T15:28:46.201Z,9.17
2018-07-31T15:31:14.502Z,9.20
2018-07-31T15:33:42.698Z,8.70
2018-07-31T15:36:10.988Z,8.00
2018-07-31T15:38:40.210Z,9.00
2018-07-31T15:41:08.446Z,9.03
2018-07-31T15:43:36.740Z,8.57
2018-07-31T15:46:05.150Z,8.90
2018-07-31T15:48:33.336Z,8.63
2018-07-31T15:51:01.610Z,8.27
2018-07-31T15:53:29.828Z,8.13
2018-07-31T15:55:58.140Z,8.60
2018-07-31T15:58:26.728Z,8.03
2018-07-31T16:00:54.915Z,8.03
2018-07-31T16:03:22.849Z,8.07
2018-07-31T16:05:51.157Z,6.70
2018-07-31T16:08:19.320Z,8.37
2018-07-31T16:10:47.606Z,7.97
2018-07-31T16:13:15.855Z,8.10
2018-07-31T16:15:44.072Z,8.83
2018-07-31T16:18:12.318Z,7.57
2018-07-31T16:20:40.501Z,7.90
2018-07-31T16:23:08.810Z,7.80
2018-07-31T16:25:36.876Z,7.83
2018-07-31T16:28:05.154Z,7.37
2018-07-31T16:30:33.374Z,7.43
2018-07-31T16:33:01.970Z,7.90
2018-07-31T16:35:30.266Z,8.60
2018-07-31T16:37:58.490Z,8.43
2018-07-31T16:40:26.713Z,8.17
2018-07-31T16:42:55.066Z,7.57
2018-07-31T16:45:23.373Z,7.50
2018-07-31T16:47:51.647Z,7.90
2018-07-31T16:50:19.836Z,7.67
2018-07-31T16:52:48.181Z,7.90
2018-07-31T16:55:16.454Z,7.10
2018-07-31T16:57:44.710Z,7.90
2018-07-31T17:00:13.656Z,7.87
2018-07-31T17:02:41.903Z,8.13
2018-07-31T17:05:10.102Z,8.00
2018-07-31T17:07:38.868Z,8.20
2018-07-31T17:10:07.067Z,8.63
2018-07-31T17:12:35.945Z,8.57
2018-07-31T17:15:04.744Z,8.03
2018-07-31T17:17:33.023Z,8.40
2018-07-31T17:20:01.266Z,8.50
2018-07-31T17:22:29.534Z,7.70
2018-07-31T17:24:57.818Z,8.50
2018-07-31T17:27:26.214Z,8.30
2018-07-31T17:29:55.482Z,9.10
2018-07-31T17:32:23.674Z,8.10
2018-07-31T17:34:51.875Z,8.60
2018-07-31T17:37:20.110Z,9.20
2018-07-31T17:39:48.359Z,8.67
2018-07-31T17:42:16.607Z,9.13
2018-07-31T17:44:44.809Z,7.60
2018-07-31T17:47:13.022Z,8.60
2018-07-31T17:49:41.210Z,7.93
2018-07-31T17:52:09.504Z,8.70
2018-07-31T17:54:37.689Z,8.90
2018-07-31T17:57:05.890Z,9.43
2018-07-31T17:59:34.085Z,8.37
2018-07-31T18:02:02.310Z,9.43
2018-07-31T18:04:30.503Z,8.70
2018-07-31T18:06:58.740Z,8.83
2018-07-31T18:09:26.930Z,9.40
2018-07-31T18:11:56.266Z,10.43
2018-07-31T18:14:24.493Z,9.43
2018-07-31T18:16:52.733Z,10.07
2018-07-31T18:19:21.022Z,8.90
2018-07-31T18:21:49.322Z,8.67
2018-07-31T18:24:17.542Z,9.43
2018-07-31T18:26:45.730Z,9.73
2018-07-31T18:29:14.037Z,9.97
2018-07-31T18:31:42.269Z,11.00
2018-07-31T18:34:10.473Z,11.03
2018-07-31T18:36:38.749Z,11.70
2018-07-31T18:39:09.807Z,12.27
2018-07-31T18:41:38.048Z,11.93
2018-07-31T18:44:06.320Z,11.70
2018-07-31T18:46:34.516Z,12.10
2018-07-31T18:49:02.825Z,13.30
2018-07-31T18:51:31.046Z,12.03
2018-07-31T18:53:59.278Z,13.07
2018-07-31T18:56:27.609Z,30.23
2018-07-31T18:58:55.835Z,15.63
2018-07-31T19:01:24.195Z,14.90
2018-07-31T19:03:52.535Z,14.13
2018-07-31T19:06:20.796Z,13.07
2018-07-31T19:08:49.071Z,12.80
2018-07-31T19:11:17.314Z,13.30
2018-07-31T19:13:45.583Z,14.07
2018-07-31T19:16:13.895Z,14.40
2018-07-31T19:18:42.116Z,13.87
2018-07-31T19:21:10.381Z,14.07
2018-07-31T19:23:38.645Z,13.60
2018-07-31T19:26:07.105Z,13.37
2018-07-31T19:28:35.406Z,12.30
2018-07-31T19:31:03.666Z,13.70
2018-07-31T19:33:31.851Z,12.67
2018-07-31T19:36:00.127Z,15.30
2018-07-31T19:38:28.331Z,13.40
2018-07-31T19:40:56.559Z,15.40
2018-07-31T19:43:24.778Z,13.73
2018-07-31T19:45:53.225Z,13.00
2018-07-31T19:48:21.502Z,12.60
2018-07-31T19:50:49.708Z,13.30
2018-07-31T19:53:17.903Z,13.10
2018-07-31T19:55:46.159Z,14.33
2018-07-31T19:58:14.431Z,15.43
2018-07-31T20:00:43.078Z,14.37
2018-07-31T20:03:11.448Z,15.60
2018-07-31T20:05:39.676Z,14.77
2018-07-31T20:08:07.945Z,14.00
2018-07-31T20:10:36.209Z,14.53
2018-07-31T20:13:04.604Z,15.47
2018-07-31T20:15:32.905Z,14.27
2018-07-31T20:18:01.106Z,14.40
2018-07-31T20:20:29.342Z,13.30
2018-07-31T20:22:57.598Z,14.83
2018-07-31T20:25:25.937Z,13.73
2018-07-31T20:27:54.156Z,13.73
2018-07-31T20:30:22.406Z,13.53
2018-07-31T20:32:50.592Z,12.20
2018-07-31T20:35:18.850Z,14.47
2018-07-31T20:37:47.076Z,13.53
2018-07-31T20:40:15.353Z,12.27
2018-07-31T20:42:50.250Z,12.63
2018-07-31T20:45:18.458Z,14.17
2018-07-31T20:47:46.663Z,14.40
2018-07-31T20:50:14.943Z,12.50
2018-07-31T20:52:43.185Z,13.57
2018-07-31T20:55:11.441Z,13.50
2018-07-31T20:57:39.691Z,13.70
2018-07-31T21:00:08.297Z,14.30
2018-07-31T21:02:36.592Z,15.80
2018-07-31T21:05:05.038Z,14.90
2018-07-31T21:07:33.322Z,16.40
2018-07-31T21:10:01.530Z,15.90
2018-07-31T21:12:29.735Z,16.80
2018-07-31T21:14:57.959Z,15.70
2018-07-31T21:17:26.171Z,14.90
2018-07-31T21:19:54.408Z,15.43
2018-07-31T21:22:22.593Z,15.10
2018-07-31T21:24:50.826Z,15.80
2018-07-31T21:27:20.742Z,15.77
2018-07-31T21:29:48.941Z,15.07
2018-07-31T21:32:17.175Z,14.00
2018-07-31T21:34:45.392Z,15.13
2018-07-31T21:37:13.623Z,15.17
2018-07-31T21:39:41.822Z,16.40
2018-07-31T21:42:10.167Z,15.67
2018-07-31T21:44:38.399Z,14.57
2018-07-31T21:47:06.671Z,15.03
2018-07-31T21:49:34.950Z,16.73
2018-07-31T21:52:03.195Z,15.50
2018-07-31T21:54:31.414Z,15.90
2018-07-31T21:56:59.630Z,15.63
2018-07-31T21:59:27.908Z,14.60
2018-07-31T22:01:56.188Z,14.40
2018-07-31T22:04:24.475Z,14.30
2018-07-31T22:06:52.694Z,13.87
2018-07-31T22:09:26.719Z,14.20
2018-07-31T22:11:54.959Z,14.03
2018-07-31T22:14:24.305Z,12.97
2018-07-31T22:16:52.550Z,15.37
2018-07-31T22:19:20.756Z,14.23
2018-07-31T22:21:49.000Z,14.47
2018-07-31T22:24:17.218Z,15.40
2018-07-31T22:26:45.406Z,14.50
2018-07-31T22:29:13.738Z,13.77
2018-07-31T22:31:42.254Z,14.73
2018-07-31T22:34:10.427Z,13.40
2018-07-31T22:36:38.705Z,12.83
2018-07-31T22:39:08.770Z,12.60
2018-07-31T22:41:36.937Z,14.30
2018-07-31T22:44:05.209Z,13.53
2018-07-31T22:46:33.399Z,13.87
2018-07-31T22:49:01.876Z,13.40
2018-07-31T22:51:30.159Z,15.10
2018-07-31T22:53:59.030Z,14.93
2018-07-31T22:56:27.335Z,13.73
2018-07-31T22:58:55.498Z,14.53
2018-07-31T23:01:23.726Z,13.03
2018-07-31T23:03:51.953Z,14.10
2018-07-31T23:06:20.213Z,14.33
2018-07-31T23:08:48.441Z,13.70
2018-07-31T23:11:16.653Z,14.57
2018-07-31T23:13:44.881Z,13.80
2018-07-31T23:16:13.187Z,15.00
2018-07-31T23:18:41.388Z,14.23
2018-07-31T23:21:09.660Z,13.97
2018-07-31T23:23:37.820Z,13.33
2018-07-31T23:26:06.261Z,14.07
2018-07-31T23:28:41.019Z,14.33
2018-07-31T23:31:09.262Z,13.80
2018-07-31T23:33:37.452Z,15.17
2018-07-31T23:36:05.673Z,14.20
2018-07-31T23:38:33.861Z,13.17
2018-07-31T23:41:02.030Z,15.33
2018-07-31T23:43:30.237Z,14.63
2018-07-31T23:45:58.454Z,14.27
2018-07-31T23:48:26.699Z,14.03
2018-07-31T23:50:54.898Z,14.30
2018-07-31T23:53:23.105Z,14.40
2018-07-31T23:55:51.281Z,14.43
2018-07-31T23:58:19.741Z,14.20
